sensor_id;sensor_type;location;lat;lon;timestamp;pressure;altitude;pressure_sealevel;temperature;humidity
62978;BME280;49073;42.352;23.808;2022-08-21T00:00:26;94166.94;;;18.22;89.35
62978;BME280;49073;42.352;23.808;2022-08-21T00:03:27;94159.06;;;18.31;91.47
62978;BME280;49073;42.352;23.808;2022-08-21T00:06:27;94160.38;;;18.43;91.61
62978;BME280;49073;42.352;23.808;2022-08-21T00:09:28;94159.66;;;18.59;90.71
62978;BME280;49073;42.352;23.808;2022-08-21T00:12:29;94160.50;;;18.56;89.56
62978;BME280;49073;42.352;23.808;2022-08-21T00:15:33;94156.00;;;18.50;89.49
62978;BME280;49073;42.352;23.808;2022-08-21T00:18:33;94162.09;;;18.54;90.03
62978;BME280;49073;42.352;23.808;2022-08-21T00:21:35;94168.94;;;18.58;89.69
62978;BME280;49073;42.352;23.808;2022-08-21T00:24:35;94167.63;;;18.46;88.90
62978;BME280;49073;42.352;23.808;2022-08-21T00:27:36;94168.78;;;18.66;88.67
62978;BME280;49073;42.352;23.808;2022-08-21T00:30:38;94156.69;;;18.54;86.94
62978;BME280;49073;42.352;23.808;2022-08-21T00:33:38;94149.91;;;18.45;88.73
62978;BME280;49073;42.352;23.808;2022-08-21T00:36:39;94148.41;;;18.44;90.41
62978;BME280;49073;42.352;23.808;2022-08-21T00:39:40;94153.44;;;18.63;89.13
62978;BME280;49073;42.352;23.808;2022-08-21T00:42:41;94147.19;;;18.66;88.16
62978;BME280;49073;42.352;23.808;2022-08-21T00:45:41;94162.81;;;18.54;88.46
62978;BME280;49073;42.352;23.808;2022-08-21T00:48:42;94154.06;;;18.50;88.40
62978;BME280;49073;42.352;23.808;2022-08-21T00:51:51;94138.53;;;18.54;88.55
62978;BME280;49073;42.352;23.808;2022-08-21T00:54:55;94141.00;;;18.49;88.67
62978;BME280;49073;42.352;23.808;2022-08-21T00:57:59;94151.22;;;18.57;87.72
62978;BME280;49073;42.352;23.808;2022-08-21T01:01:03;94163.66;;;18.51;87.60
62978;BME280;49073;42.352;23.808;2022-08-21T01:04:04;94159.88;;;18.49;87.02
62978;BME280;49073;42.352;23.808;2022-08-21T01:07:06;94161.06;;;18.48;86.22
62978;BME280;49073;42.352;23.808;2022-08-21T01:10:08;94156.91;;;18.43;88.10
62978;BME280;49073;42.352;23.808;2022-08-21T01:13:10;94156.34;;;18.52;86.36
62978;BME280;49073;42.352;23.808;2022-08-21T01:16:13;94154.44;;;18.32;86.77
62978;BME280;49073;42.352;23.808;2022-08-21T01:19:16;94167.28;;;18.24;88.80
62978;BME280;49073;42.352;23.808;2022-08-21T01:22:17;94165.22;;;18.32;88.90
62978;BME280;49073;42.352;23.808;2022-08-21T01:25:19;94154.28;;;18.39;88.49
62978;BME280;49073;42.352;23.808;2022-08-21T01:28:21;94156.50;;;18.44;87.03
62978;BME280;49073;42.352;23.808;2022-08-21T01:31:24;94149.91;;;18.45;88.17
62978;BME280;49073;42.352;23.808;2022-08-21T01:34:25;94146.63;;;18.54;88.16
62978;BME280;49073;42.352;23.808;2022-08-21T01:37:25;94151.22;;;18.57;87.19
62978;BME280;49073;42.352;23.808;2022-08-21T01:40:26;94152.63;;;18.45;87.49
62978;BME280;49073;42.352;23.808;2022-08-21T01:43:27;94155.31;;;18.25;88.32
62978;BME280;49073;42.352;23.808;2022-08-21T01:46:28;94153.94;;;18.17;89.51
62978;BME280;49073;42.352;23.808;2022-08-21T01:49:28;94158.78;;;18.26;88.51
62978;BME280;49073;42.352;23.808;2022-08-21T01:52:29;94149.63;;;18.40;87.32
62978;BME280;49073;42.352;23.808;2022-08-21T01:55:29;94138.19;;;18.15;88.38
62978;BME280;49073;42.352;23.808;2022-08-21T01:58:30;94149.09;;;18.08;89.90
62978;BME280;49073;42.352;23.808;2022-08-21T02:01:30;94143.44;;;18.23;89.92
62978;BME280;49073;42.352;23.808;2022-08-21T02:04:31;94146.75;;;18.10;89.88
62978;BME280;49073;42.352;23.808;2022-08-21T02:07:44;94147.94;;;18.09;90.34
62978;BME280;49073;42.352;23.808;2022-08-21T02:10:45;94141.66;;;18.16;89.78
62978;BME280;49073;42.352;23.808;2022-08-21T02:13:46;94148.28;;;18.31;88.72
62978;BME280;49073;42.352;23.808;2022-08-21T02:16:47;94152.09;;;18.34;89.61
62978;BME280;49073;42.352;23.808;2022-08-21T02:19:48;94150.34;;;18.24;89.89
62978;BME280;49073;42.352;23.808;2022-08-21T02:22:48;94140.63;;;18.10;90.49
62978;BME280;49073;42.352;23.808;2022-08-21T02:25:49;94155.63;;;18.11;91.34
62978;BME280;49073;42.352;23.808;2022-08-21T02:28:50;94165.91;;;18.16;90.65
62978;BME280;49073;42.352;23.808;2022-08-21T02:31:51;94158.16;;;18.18;90.48
62978;BME280;49073;42.352;23.808;2022-08-21T02:34:51;94170.28;;;18.10;90.48
62978;BME280;49073;42.352;23.808;2022-08-21T02:37:55;94163.81;;;18.24;90.22
62978;BME280;49073;42.352;23.808;2022-08-21T02:40:56;94167.84;;;18.36;88.22
62978;BME280;49073;42.352;23.808;2022-08-21T02:43:57;94164.41;;;18.35;88.74
62978;BME280;49073;42.352;23.808;2022-08-21T02:46:57;94158.16;;;18.38;88.13
62978;BME280;49073;42.352;23.808;2022-08-21T02:49:58;94157.81;;;18.36;88.28
62978;BME280;49073;42.352;23.808;2022-08-21T02:52:59;94158.66;;;18.33;89.63
62978;BME280;49073;42.352;23.808;2022-08-21T02:56:04;94162.78;;;18.38;89.91
62978;BME280;49073;42.352;23.808;2022-08-21T02:59:05;94173.44;;;18.25;89.78
62978;BME280;49073;42.352;23.808;2022-08-21T03:02:05;94171.72;;;18.35;90.04
62978;BME280;49073;42.352;23.808;2022-08-21T03:05:08;94174.34;;;18.38;89.47
62978;BME280;49073;42.352;23.808;2022-08-21T03:08:12;94181.03;;;18.50;89.16
62978;BME280;49073;42.352;23.808;2022-08-21T03:11:14;94184.44;;;18.34;88.69
62978;BME280;49073;42.352;23.808;2022-08-21T03:14:15;94182.09;;;18.36;89.49
62978;BME280;49073;42.352;23.808;2022-08-21T03:17:15;94193.72;;;18.13;91.10
62978;BME280;49073;42.352;23.808;2022-08-21T03:20:18;94193.06;;;18.05;91.19
62978;BME280;49073;42.352;23.808;2022-08-21T03:23:20;94186.31;;;18.17;90.68
62978;BME280;49073;42.352;23.808;2022-08-21T03:26:20;94188.03;;;18.27;89.09
62978;BME280;49073;42.352;23.808;2022-08-21T03:29:21;94195.50;;;18.20;89.06
62978;BME280;49073;42.352;23.808;2022-08-21T03:32:22;94196.13;;;18.07;91.25
62978;BME280;49073;42.352;23.808;2022-08-21T03:35:23;94198.69;;;18.14;91.59
62978;BME280;49073;42.352;23.808;2022-08-21T03:38:24;94203.19;;;18.21;90.88
62978;BME280;49073;42.352;23.808;2022-08-21T03:41:24;94201.84;;;18.09;90.97
62978;BME280;49073;42.352;23.808;2022-08-21T03:44:25;94204.34;;;18.20;91.01
62978;BME280;49073;42.352;23.808;2022-08-21T03:47:28;94208.28;;;18.15;90.57
62978;BME280;49073;42.352;23.808;2022-08-21T03:50:32;94201.59;;;18.24;89.83
62978;BME280;49073;42.352;23.808;2022-08-21T03:53:33;94206.19;;;18.27;89.92
62978;BME280;49073;42.352;23.808;2022-08-21T03:56:34;94195.59;;;18.36;89.41
62978;BME280;49073;42.352;23.808;2022-08-21T03:59:35;94200.50;;;18.41;89.06
62978;BME280;49073;42.352;23.808;2022-08-21T04:02:36;94196.97;;;18.44;89.39
62978;BME280;49073;42.352;23.808;2022-08-21T04:05:36;94196.63;;;18.42;89.42
62978;BME280;49073;42.352;23.808;2022-08-21T04:08:37;94196.34;;;18.37;89.71
62978;BME280;49073;42.352;23.808;2022-08-21T04:11:38;94196.97;;;18.44;89.31
62978;BME280;49073;42.352;23.808;2022-08-21T04:14:38;94199.31;;;18.42;89.39
62978;BME280;49073;42.352;23.808;2022-08-21T04:17:39;94188.09;;;18.44;90.10
62978;BME280;49073;42.352;23.808;2022-08-21T04:20:41;94185.69;;;18.50;89.53
62978;BME280;49073;42.352;23.808;2022-08-21T04:23:43;94193.44;;;18.48;90.12
62978;BME280;49073;42.352;23.808;2022-08-21T04:26:43;94193.56;;;18.40;90.72
62978;BME280;49073;42.352;23.808;2022-08-21T04:29:44;94192.53;;;18.34;90.81
62978;BME280;49073;42.352;23.808;2022-08-21T04:32:46;94200.50;;;18.41;91.39
62978;BME280;49073;42.352;23.808;2022-08-21T04:35:47;94189.91;;;18.51;90.78
62978;BME280;49073;42.352;23.808;2022-08-21T04:38:49;94197.50;;;18.56;88.98
62978;BME280;49073;42.352;23.808;2022-08-21T04:41:49;94194.13;;;18.52;89.65
62978;BME280;49073;42.352;23.808;2022-08-21T04:44:50;94195.91;;;18.58;89.22
62978;BME280;49073;42.352;23.808;2022-08-21T04:47:52;94181.88;;;18.47;88.84
62978;BME280;49073;42.352;23.808;2022-08-21T04:54:12;94197.09;;;18.37;90.18
62978;BME280;49073;42.352;23.808;2022-08-21T04:57:15;94197.50;;;18.36;90.26
62978;BME280;49073;42.352;23.808;2022-08-21T05:00:16;94187.84;;;18.38;90.63
62978;BME280;49073;42.352;23.808;2022-08-21T05:03:18;94187.41;;;18.40;89.19
62978;BME280;49073;42.352;23.808;2022-08-21T05:06:19;94179.25;;;18.43;89.66
62978;BME280;49073;42.352;23.808;2022-08-21T05:09:21;94170.31;;;18.46;89.27
62978;BME280;49073;42.352;23.808;2022-08-21T05:12:22;94165.47;;;18.38;88.58
62978;BME280;49073;42.352;23.808;2022-08-21T05:15:23;94170.75;;;18.25;90.27
62978;BME280;49073;42.352;23.808;2022-08-21T05:18:23;94184.16;;;18.28;90.85
62978;BME280;49073;42.352;23.808;2022-08-21T05:21:24;94190.03;;;18.23;90.52
62978;BME280;49073;42.352;23.808;2022-08-21T05:24:24;94180.34;;;18.26;89.88
62978;BME280;49073;42.352;23.808;2022-08-21T05:27:26;94177.53;;;18.33;88.90
62978;BME280;49073;42.352;23.808;2022-08-21T05:30:30;94169.94;;;18.28;89.04
62978;BME280;49073;42.352;23.808;2022-08-21T05:33:32;94174.56;;;18.27;89.49
62978;BME280;49073;42.352;23.808;2022-08-21T05:36:32;94168.03;;;18.25;90.49
62978;BME280;49073;42.352;23.808;2022-08-21T05:39:33;94163.22;;;18.36;90.67
62978;BME280;49073;42.352;23.808;2022-08-21T05:42:33;94167.81;;;18.56;90.14
62978;BME280;49073;42.352;23.808;2022-08-21T05:45:34;94155.78;;;18.60;89.60
62978;BME280;49073;42.352;23.808;2022-08-21T05:48:36;94161.38;;;18.70;90.07
62978;BME280;49073;42.352;23.808;2022-08-21T05:51:38;94150.56;;;18.70;89.08
62978;BME280;49073;42.352;23.808;2022-08-21T05:54:39;94154.03;;;18.70;90.67
62978;BME280;49073;42.352;23.808;2022-08-21T05:57:39;94160.28;;;18.84;91.59
62978;BME280;49073;42.352;23.808;2022-08-21T06:00:42;94166.78;;;18.86;91.39
62978;BME280;49073;42.352;23.808;2022-08-21T06:03:43;94174.63;;;18.81;90.74
62978;BME280;49073;42.352;23.808;2022-08-21T06:06:43;94176.19;;;18.61;90.25
62978;BME280;49073;42.352;23.808;2022-08-21T06:09:43;94176.28;;;18.74;91.24
62978;BME280;49073;42.352;23.808;2022-08-21T06:12:44;94184.56;;;18.84;91.52
62978;BME280;49073;42.352;23.808;2022-08-21T06:15:45;94181.19;;;18.80;92.88
62978;BME280;49073;42.352;23.808;2022-08-21T06:18:46;94159.25;;;18.78;93.13
62978;BME280;49073;42.352;23.808;2022-08-21T06:21:46;94176.34;;;18.91;92.60
62978;BME280;49073;42.352;23.808;2022-08-21T06:24:47;94181.88;;;18.84;92.05
62978;BME280;49073;42.352;23.808;2022-08-21T06:27:47;94178.38;;;18.87;94.06
62978;BME280;49073;42.352;23.808;2022-08-21T06:30:48;94187.22;;;18.87;93.05
62978;BME280;49073;42.352;23.808;2022-08-21T06:33:48;94192.09;;;18.93;90.50
62978;BME280;49073;42.352;23.808;2022-08-21T06:36:49;94191.88;;;18.87;91.87
62978;BME280;49073;42.352;23.808;2022-08-21T06:39:49;94187.69;;;19.02;90.11
62978;BME280;49073;42.352;23.808;2022-08-21T06:42:50;94183.31;;;19.09;90.05
62978;BME280;49073;42.352;23.808;2022-08-21T06:45:50;94187.94;;;19.08;90.13
62978;BME280;49073;42.352;23.808;2022-08-21T06:48:51;94195.16;;;18.95;89.67
62978;BME280;49073;42.352;23.808;2022-08-21T06:51:52;94187.00;;;18.98;89.39
62978;BME280;49073;42.352;23.808;2022-08-21T06:54:52;94191.41;;;19.09;89.55
62978;BME280;49073;42.352;23.808;2022-08-21T06:57:53;94190.31;;;19.23;89.41
62978;BME280;49073;42.352;23.808;2022-08-21T07:00:53;94194.72;;;19.33;88.55
62978;BME280;49073;42.352;23.808;2022-08-21T07:03:54;94196.25;;;19.34;89.71
62978;BME280;49073;42.352;23.808;2022-08-21T07:06:55;94195.13;;;19.31;89.61
62978;BME280;49073;42.352;23.808;2022-08-21T07:09:55;94191.91;;;19.20;89.59
62978;BME280;49073;42.352;23.808;2022-08-21T07:12:56;94188.66;;;19.29;90.18
62978;BME280;49073;42.352;23.808;2022-08-21T07:15:56;94191.50;;;19.38;88.49
62978;BME280;49073;42.352;23.808;2022-08-21T07:18:56;94185.66;;;19.40;90.56
62978;BME280;49073;42.352;23.808;2022-08-21T07:22:00;94188.53;;;19.32;92.35
62978;BME280;49073;42.352;23.808;2022-08-21T07:25:02;94185.09;;;19.32;91.33
62978;BME280;49073;42.352;23.808;2022-08-21T07:28:03;94185.66;;;19.40;91.51
62978;BME280;49073;42.352;23.808;2022-08-21T07:31:05;94172.41;;;19.12;91.62
62978;BME280;49073;42.352;23.808;2022-08-21T07:34:05;94186.16;;;19.01;90.88
62978;BME280;49073;42.352;23.808;2022-08-21T07:37:06;94178.25;;;19.11;91.36
62978;BME280;49073;42.352;23.808;2022-08-21T07:40:07;94183.25;;;18.92;91.34
62978;BME280;49073;42.352;23.808;2022-08-21T07:43:07;94178.59;;;18.93;92.63
62978;BME280;49073;42.352;23.808;2022-08-21T07:46:08;94185.13;;;18.95;92.62
62978;BME280;49073;42.352;23.808;2022-08-21T07:49:08;94184.78;;;18.93;92.07
62978;BME280;49073;42.352;23.808;2022-08-21T07:52:09;94176.97;;;18.99;92.18
62978;BME280;49073;42.352;23.808;2022-08-21T07:55:13;94184.50;;;19.08;92.66
62978;BME280;49073;42.352;23.808;2022-08-21T07:58:14;94189.03;;;19.11;90.97
62978;BME280;49073;42.352;23.808;2022-08-21T08:01:15;94188.13;;;19.17;90.21
62978;BME280;49073;42.352;23.808;2022-08-21T08:04:16;94188.47;;;19.36;89.48
62978;BME280;49073;42.352;23.808;2022-08-21T08:07:16;94187.28;;;19.37;90.41
62978;BME280;49073;42.352;23.808;2022-08-21T08:10:18;94180.78;;;19.34;91.20
62978;BME280;49073;42.352;23.808;2022-08-21T08:13:19;94181.44;;;19.39;90.24
62978;BME280;49073;42.352;23.808;2022-08-21T08:16:19;94179.94;;;19.38;90.35
62978;BME280;49073;42.352;23.808;2022-08-21T08:19:20;94189.81;;;19.44;88.62
62978;BME280;49073;42.352;23.808;2022-08-21T08:22:22;94191.13;;;19.69;88.24
62978;BME280;49073;42.352;23.808;2022-08-21T08:25:26;94187.31;;;19.83;86.38
62978;BME280;49073;42.352;23.808;2022-08-21T08:28:27;94185.28;;;19.87;86.21
62978;BME280;49073;42.352;23.808;2022-08-21T08:31:28;94184.47;;;19.90;85.37
62978;BME280;49073;42.352;23.808;2022-08-21T08:34:28;94173.63;;;20.07;85.19
62978;BME280;49073;42.352;23.808;2022-08-21T08:37:30;94183.72;;;20.19;84.06
62978;BME280;49073;42.352;23.808;2022-08-21T08:43:55;94175.22;;;20.34;82.22
62978;BME280;49073;42.352;23.808;2022-08-21T08:46:59;94162.94;;;20.29;85.32
62978;BME280;49073;42.352;23.808;2022-08-21T08:53:25;94155.69;;;20.26;81.41
62978;BME280;49073;42.352;23.808;2022-08-21T08:56:31;94159.75;;;20.34;82.21
62978;BME280;49073;42.352;23.808;2022-08-21T08:59:39;94154.00;;;20.45;79.31
62978;BME280;49073;42.352;23.808;2022-08-21T09:02:42;94156.59;;;20.36;79.51
62978;BME280;49073;42.352;23.808;2022-08-21T09:05:46;94156.63;;;20.49;80.57
62978;BME280;49073;42.352;23.808;2022-08-21T09:13:27;94153.34;;;20.97;77.15
62978;BME280;49073;42.352;23.808;2022-08-21T09:22:39;94129.56;;;21.14;76.91
62978;BME280;49073;42.352;23.808;2022-08-21T09:26:04;94128.91;;;21.22;76.33
62978;BME280;49073;42.352;23.808;2022-08-21T09:29:10;94126.44;;;21.15;75.55
62978;BME280;49073;42.352;23.808;2022-08-21T09:32:18;94132.09;;;21.21;76.91
62978;BME280;49073;42.352;23.808;2022-08-21T09:35:23;94126.50;;;21.50;76.70
62978;BME280;49073;42.352;23.808;2022-08-21T09:38:35;94130.69;;;22.00;75.99
62978;BME280;49073;42.352;23.808;2022-08-21T09:41:38;94124.22;;;22.06;73.98
62978;BME280;49073;42.352;23.808;2022-08-21T09:44:41;94123.03;;;22.07;74.92
62978;BME280;49073;42.352;23.808;2022-08-21T09:47:44;94124.88;;;21.88;71.39
62978;BME280;49073;42.352;23.808;2022-08-21T09:50:47;94117.03;;;21.90;72.82
62978;BME280;49073;42.352;23.808;2022-08-21T09:53:52;94128.91;;;21.84;71.62
62978;BME280;49073;42.352;23.808;2022-08-21T09:57:30;94129.53;;;21.88;72.10
62978;BME280;49073;42.352;23.808;2022-08-21T10:00:39;94128.91;;;21.84;72.44
62978;BME280;49073;42.352;23.808;2022-08-21T10:03:39;94127.28;;;21.86;72.52
62978;BME280;49073;42.352;23.808;2022-08-21T10:06:40;94129.53;;;21.88;72.63
62978;BME280;49073;42.352;23.808;2022-08-21T10:09:41;94123.53;;;21.93;72.46
62978;BME280;49073;42.352;23.808;2022-08-21T10:13:12;94115.53;;;21.89;72.43
62978;BME280;49073;42.352;23.808;2022-08-21T10:25:35;94124.91;;;21.75;72.79
62978;BME280;49073;42.352;23.808;2022-08-21T10:32:24;94117.22;;;21.96;74.14
62978;BME280;49073;42.352;23.808;2022-08-21T10:35:30;94098.34;;;21.70;74.28
62978;BME280;49073;42.352;23.808;2022-08-21T10:38:58;94103.00;;;21.70;75.71
62978;BME280;49073;42.352;23.808;2022-08-21T10:42:23;94103.66;;;21.74;77.26
62978;BME280;49073;42.352;23.808;2022-08-21T10:48:53;94096.44;;;21.58;77.63
62978;BME280;49073;42.352;23.808;2022-08-21T10:52:25;94105.72;;;21.70;77.81
62978;BME280;49073;42.352;23.808;2022-08-21T10:55:39;94091.59;;;21.75;77.77
62978;BME280;49073;42.352;23.808;2022-08-21T10:58:49;94105.06;;;21.78;77.10
62978;BME280;49073;42.352;23.808;2022-08-21T11:02:14;94102.06;;;21.63;77.01
62978;BME280;49073;42.352;23.808;2022-08-21T11:05:35;94101.31;;;21.50;76.27
62978;BME280;49073;42.352;23.808;2022-08-21T11:08:41;94097.50;;;21.60;77.92
62978;BME280;49073;42.352;23.808;2022-08-21T11:11:53;94096.13;;;21.78;79.79
62978;BME280;49073;42.352;23.808;2022-08-21T11:18:31;94099.19;;;21.80;76.46
62978;BME280;49073;42.352;23.808;2022-08-21T11:25:02;94088.00;;;21.78;77.01
62978;BME280;49073;42.352;23.808;2022-08-21T11:28:26;94092.50;;;21.94;78.44
62978;BME280;49073;42.352;23.808;2022-08-21T11:35:11;94086.22;;;22.29;76.64
62978;BME280;49073;42.352;23.808;2022-08-21T11:41:31;94071.66;;;22.13;76.00
62978;BME280;49073;42.352;23.808;2022-08-21T11:52:12;94077.59;;;21.76;78.97
62978;BME280;49073;42.352;23.808;2022-08-21T11:55:18;94088.41;;;21.67;80.29
62978;BME280;49073;42.352;23.808;2022-08-21T11:58:30;94098.63;;;21.50;80.04
62978;BME280;49073;42.352;23.808;2022-08-21T12:01:35;94088.41;;;21.54;79.74
62978;BME280;49073;42.352;23.808;2022-08-21T12:04:51;94082.56;;;21.56;79.81
62978;BME280;49073;42.352;23.808;2022-08-21T12:08:27;94086.00;;;21.56;80.11
62978;BME280;49073;42.352;23.808;2022-08-21T12:11:27;94098.53;;;21.41;80.29
62978;BME280;49073;42.352;23.808;2022-08-21T12:14:47;94089.78;;;21.36;79.45
62978;BME280;49073;42.352;23.808;2022-08-21T12:21:25;94098.25;;;21.26;79.65
62978;BME280;49073;42.352;23.808;2022-08-21T12:27:40;94080.00;;;21.39;80.03
62978;BME280;49073;42.352;23.808;2022-08-21T12:30:44;94080.75;;;21.40;81.06
62978;BME280;49073;42.352;23.808;2022-08-21T12:33:52;94082.50;;;21.33;81.03
62978;BME280;49073;42.352;23.808;2022-08-21T12:36:58;94076.69;;;21.22;81.63
62978;BME280;49073;42.352;23.808;2022-08-21T12:40:00;94076.72;;;21.09;83.52
62978;BME280;49073;42.352;23.808;2022-08-21T12:43:04;94072.34;;;21.12;85.02
62978;BME280;49073;42.352;23.808;2022-08-21T12:46:06;94077.59;;;21.06;86.10
62978;BME280;49073;42.352;23.808;2022-08-21T12:49:15;94069.38;;;20.97;85.50
62978;BME280;49073;42.352;23.808;2022-08-21T12:52:29;94065.16;;;20.83;86.49
62978;BME280;49073;42.352;23.808;2022-08-21T12:55:32;94060.63;;;20.80;86.13
62978;BME280;49073;42.352;23.808;2022-08-21T12:58:33;94058.06;;;21.11;85.34
62978;BME280;49073;42.352;23.808;2022-08-21T13:04:38;94063.41;;;21.02;87.65
62978;BME280;49073;42.352;23.808;2022-08-21T13:07:44;94054.66;;;20.85;90.72
62978;BME280;49073;42.352;23.808;2022-08-21T13:10:46;94050.97;;;20.78;92.18
62978;BME280;49073;42.352;23.808;2022-08-21T13:13:50;94039.56;;;20.71;92.73
62978;BME280;49073;42.352;23.808;2022-08-21T13:16:56;94037.09;;;20.50;93.46
62978;BME280;49073;42.352;23.808;2022-08-21T13:20:04;94039.69;;;20.54;94.23
62978;BME280;49073;42.352;23.808;2022-08-21T13:23:23;94040.91;;;20.66;93.74
62978;BME280;49073;42.352;23.808;2022-08-21T13:26:24;94033.41;;;20.70;92.73
62978;BME280;49073;42.352;23.808;2022-08-21T13:29:31;94022.69;;;20.67;92.00
62978;BME280;49073;42.352;23.808;2022-08-21T13:32:35;94019.88;;;20.70;90.78
62978;BME280;49073;42.352;23.808;2022-08-21T13:38:57;94030.03;;;20.92;89.71
62978;BME280;49073;42.352;23.808;2022-08-21T13:42:00;94023.91;;;21.14;88.93
62978;BME280;49073;42.352;23.808;2022-08-21T13:45:02;94008.53;;;21.11;88.63
62978;BME280;49073;42.352;23.808;2022-08-21T13:48:03;94009.22;;;21.02;89.68
62978;BME280;49073;42.352;23.808;2022-08-21T13:51:04;94007.91;;;21.06;90.53
62978;BME280;49073;42.352;23.808;2022-08-21T13:54:25;93998.47;;;21.11;89.76
62978;BME280;49073;42.352;23.808;2022-08-21T13:57:31;94005.25;;;20.93;92.07
62978;BME280;49073;42.352;23.808;2022-08-21T14:00:43;94007.00;;;20.61;94.58
62978;BME280;49073;42.352;23.808;2022-08-21T14:03:45;94009.59;;;20.52;96.60
62978;BME280;49073;42.352;23.808;2022-08-21T14:06:49;94009.50;;;20.43;96.55
62978;BME280;49073;42.352;23.808;2022-08-21T14:09:50;94009.06;;;20.44;95.73
62978;BME280;49073;42.352;23.808;2022-08-21T14:12:54;94005.94;;;20.33;95.36
62978;BME280;49073;42.352;23.808;2022-08-21T14:16:00;94005.16;;;20.32;96.31
62978;BME280;49073;42.352;23.808;2022-08-21T14:22:22;94011.75;;;20.31;97.50
62978;BME280;49073;42.352;23.808;2022-08-21T14:28:32;94011.97;;;20.37;97.26
62978;BME280;49073;42.352;23.808;2022-08-21T14:31:33;94005.50;;;20.34;96.55
62978;BME280;49073;42.352;23.808;2022-08-21T14:34:34;94005.28;;;20.29;95.83
62978;BME280;49073;42.352;23.808;2022-08-21T14:37:35;94005.47;;;20.60;95.42
62978;BME280;49073;42.352;23.808;2022-08-21T14:40:36;93998.00;;;20.64;94.92
62978;BME280;49073;42.352;23.808;2022-08-21T14:43:36;93986.72;;;20.79;93.81
62978;BME280;49073;42.352;23.808;2022-08-21T14:46:37;93979.56;;;20.85;93.83
62978;BME280;49073;42.352;23.808;2022-08-21T14:49:38;93990.22;;;20.80;94.05
62978;BME280;49073;42.352;23.808;2022-08-21T14:52:39;94001.13;;;20.76;95.30
62978;BME280;49073;42.352;23.808;2022-08-21T14:55:40;94004.28;;;20.61;95.23
62978;BME280;49073;42.352;23.808;2022-08-21T14:59:07;94001.34;;;20.56;94.51
62978;BME280;49073;42.352;23.808;2022-08-21T15:02:10;94009.38;;;20.46;96.51
62978;BME280;49073;42.352;23.808;2022-08-21T15:05:12;94006.56;;;20.37;97.20
62978;BME280;49073;42.352;23.808;2022-08-21T15:08:13;94012.84;;;20.34;97.69
62978;BME280;49073;42.352;23.808;2022-08-21T15:11:17;94014.69;;;20.37;96.63
62978;BME280;49073;42.352;23.808;2022-08-21T15:14:23;94010.25;;;20.43;95.33
62978;BME280;49073;42.352;23.808;2022-08-21T15:17:24;94021.63;;;20.51;94.54
62978;BME280;49073;42.352;23.808;2022-08-21T15:20:25;94011.13;;;20.40;94.62
62978;BME280;49073;42.352;23.808;2022-08-21T15:23:25;93999.41;;;20.43;92.85
62978;BME280;49073;42.352;23.808;2022-08-21T15:26:26;94007.41;;;20.60;92.98
62978;BME280;49073;42.352;23.808;2022-08-21T15:29:30;94000.63;;;20.55;94.53
62978;BME280;49073;42.352;23.808;2022-08-21T15:32:31;93988.03;;;20.61;94.80
62978;BME280;49073;42.352;23.808;2022-08-21T15:35:33;93985.66;;;20.63;94.73
62978;BME280;49073;42.352;23.808;2022-08-21T15:38:34;93985.88;;;20.69;94.51
62978;BME280;49073;42.352;23.808;2022-08-21T15:41:35;93985.75;;;20.60;91.34
62978;BME280;49073;42.352;23.808;2022-08-21T15:44:35;93973.28;;;20.75;91.06
62978;BME280;49073;42.352;23.808;2022-08-21T15:47:37;93950.22;;;20.84;89.37
62978;BME280;49073;42.352;23.808;2022-08-21T15:50:38;93939.47;;;20.93;87.99
62978;BME280;49073;42.352;23.808;2022-08-21T15:53:39;93950.44;;;20.76;89.55
62978;BME280;49073;42.352;23.808;2022-08-21T15:56:43;93961.94;;;20.81;89.63
62978;BME280;49073;42.352;23.808;2022-08-21T15:59:50;93966.28;;;20.52;90.95
62978;BME280;49073;42.352;23.808;2022-08-21T16:02:58;93973.00;;;20.47;91.83
62978;BME280;49073;42.352;23.808;2022-08-21T16:05:59;93977.88;;;20.53;92.17
62978;BME280;49073;42.352;23.808;2022-08-21T16:09:00;93987.09;;;20.42;92.77
62978;BME280;49073;42.352;23.808;2022-08-21T16:12:01;93977.91;;;20.40;93.44
62978;BME280;49073;42.352;23.808;2022-08-21T16:15:07;93985.47;;;20.45;92.78
62978;BME280;49073;42.352;23.808;2022-08-21T16:18:08;93982.22;;;20.63;91.44
62978;BME280;49073;42.352;23.808;2022-08-21T16:21:10;93976.97;;;20.69;90.00
62978;BME280;49073;42.352;23.808;2022-08-21T16:24:10;93976.25;;;20.68;88.39
62978;BME280;49073;42.352;23.808;2022-08-21T16:27:11;93978.63;;;20.66;87.14
62978;BME280;49073;42.352;23.808;2022-08-21T16:30:12;93979.38;;;20.67;87.46
62978;BME280;49073;42.352;23.808;2022-08-21T16:33:36;93989.13;;;20.64;86.60
62978;BME280;49073;42.352;23.808;2022-08-21T16:36:38;93986.53;;;20.60;86.24
62978;BME280;49073;42.352;23.808;2022-08-21T16:39:38;93975.25;;;20.62;86.61
62978;BME280;49073;42.352;23.808;2022-08-21T16:42:40;93982.94;;;20.63;86.69
62978;BME280;49073;42.352;23.808;2022-08-21T16:45:42;93981.34;;;20.53;87.98
62978;BME280;49073;42.352;23.808;2022-08-21T16:48:43;93988.28;;;20.54;88.63
62978;BME280;49073;42.352;23.808;2022-08-21T16:51:44;93992.81;;;20.57;88.57
62978;BME280;49073;42.352;23.808;2022-08-21T16:54:45;93989.56;;;20.49;89.46
62978;BME280;49073;42.352;23.808;2022-08-21T16:57:47;93996.94;;;20.49;90.49
62978;BME280;49073;42.352;23.808;2022-08-21T17:00:47;93985.97;;;20.53;90.73
62978;BME280;49073;42.352;23.808;2022-08-21T17:03:48;93977.66;;;20.47;91.12
62978;BME280;49073;42.352;23.808;2022-08-21T17:06:50;93974.09;;;20.37;92.01
62978;BME280;49073;42.352;23.808;2022-08-21T17:09:52;93986.22;;;20.58;91.34
62978;BME280;49073;42.352;23.808;2022-08-21T17:12:55;93992.91;;;20.67;90.33
62978;BME280;49073;42.352;23.808;2022-08-21T17:15:57;93997.34;;;20.60;90.46